DLH18LA MMMY-MGGT
Flight info
| Callsign | DLH18LA |
|---|---|
| Flight time | 2h 9m |
| Altitude | 35000 |
| Route | KERGA1A KERGA UJ81 ITBEN UJ38 CVM UJ15 TAM UT61 VER UA552 GABEN GABEN2C |
| Aircraft | B738/M-SDE2E3FGHIRWXY/LB1 |
Departure
| Time | 2026-04-14 12:18 |
|---|---|
| Airport | Monterrey International Airport (MMMY) |
Arrival
| Time | 2026-04-14 14:27 |
|---|---|
| Airport | La Aurora International Airport (MGGT) |
| Time | Latitude | Longitude | Altitude | Speed | Heading |
|---|---|---|---|---|---|
| 2026-04-14 11:39 | 25.78031 | -100.11572 | 1280 ft | 0 kts | 301° |
| 2026-04-14 12:07 | 25.78026 | -100.11563 | 1281 ft | 3 kts | 328° |
| 2026-04-14 12:07 | 25.78011 | -100.11552 | 1280 ft | 3 kts | 316° |
| 2026-04-14 12:07 | 25.77996 | -100.11539 | 1281 ft | 3 kts | 342° |
| 2026-04-14 12:08 | 25.77978 | -100.11537 | 1281 ft | 3 kts | 20° |
| 2026-04-14 12:08 | 25.77967 | -100.11544 | 1281 ft | 1 kts | 33° |
| 2026-04-14 12:13 | 25.77987 | -100.11529 | 1281 ft | 10 kts | 34° |
| 2026-04-14 12:13 | 25.78062 | -100.11499 | 1280 ft | 12 kts | 341° |
| 2026-04-14 12:14 | 25.78114 | -100.11572 | 1281 ft | 12 kts | 302° |
| 2026-04-14 12:14 | 25.78157 | -100.11651 | 1280 ft | 12 kts | 301° |
| 2026-04-14 12:14 | 25.78199 | -100.11728 | 1280 ft | 11 kts | 302° |
| 2026-04-14 12:14 | 25.78247 | -100.11795 | 1280 ft | 11 kts | 335° |
| 2026-04-14 12:15 | 25.78319 | -100.11773 | 1280 ft | 8 kts | 29° |
| 2026-04-14 12:15 | 25.78322 | -100.11771 | 1280 ft | 0 kts | 30° |
| 2026-04-14 12:15 | 25.78341 | -100.11759 | 1280 ft | 12 kts | 30° |
| 2026-04-14 12:16 | 25.78389 | -100.11687 | 1280 ft | 4 kts | 98° |
| 2026-04-14 12:16 | 25.78385 | -100.11669 | 1280 ft | 4 kts | 106° |
| 2026-04-14 12:16 | 25.78373 | -100.11642 | 1281 ft | 4 kts | 117° |
| 2026-04-14 12:16 | 25.78360 | -100.11617 | 1280 ft | 4 kts | 121° |
| 2026-04-14 12:17 | 25.78351 | -100.11600 | 1280 ft | 4 kts | 123° |
| 2026-04-14 12:17 | 25.78298 | -100.11505 | 1280 ft | 47 kts | 121° |
| 2026-04-14 12:17 | 25.77980 | -100.10924 | 1280 ft | 127 kts | 122° |
| 2026-04-14 12:17 | 25.77402 | -100.09887 | 1416 ft | 181 kts | 120° |
| 2026-04-14 12:18 | 25.76706 | -100.08629 | 2024 ft | 203 kts | 121° |
| 2026-04-14 12:18 | 25.75929 | -100.07216 | 2519 ft | 223 kts | 122° |
| 2026-04-14 12:18 | 25.75106 | -100.05718 | 2973 ft | 230 kts | 122° |
| 2026-04-14 12:18 | 25.74272 | -100.04199 | 3394 ft | 230 kts | 123° |
| 2026-04-14 12:19 | 25.73442 | -100.02688 | 3800 ft | 229 kts | 123° |
| 2026-04-14 12:19 | 25.72593 | -100.01144 | 4227 ft | 242 kts | 123° |
| 2026-04-14 12:19 | 25.71691 | -99.99520 | 4674 ft | 251 kts | 127° |
| 2026-04-14 12:19 | 25.70440 | -99.98252 | 5084 ft | 248 kts | 154° |
| 2026-04-14 12:20 | 25.68782 | -99.97726 | 5546 ft | 253 kts | 174° |
| 2026-04-14 12:20 | 25.67003 | -99.97669 | 5994 ft | 258 kts | 180° |
| 2026-04-14 12:20 | 25.65196 | -99.97726 | 6437 ft | 262 kts | 182° |
| 2026-04-14 12:20 | 25.63360 | -99.97801 | 6852 ft | 264 kts | 181° |
| 2026-04-14 12:21 | 25.61520 | -99.97871 | 7267 ft | 265 kts | 181° |
| 2026-04-14 12:21 | 25.59678 | -99.97934 | 7685 ft | 265 kts | 181° |
| 2026-04-14 12:21 | 25.57839 | -99.97991 | 8110 ft | 264 kts | 181° |
| 2026-04-14 12:21 | 25.55996 | -99.98042 | 8534 ft | 264 kts | 181° |
| 2026-04-14 12:22 | 25.54158 | -99.98091 | 8968 ft | 265 kts | 181° |
| 2026-04-14 12:22 | 25.52313 | -99.98137 | 9412 ft | 266 kts | 181° |
| 2026-04-14 12:22 | 25.50450 | -99.98183 | 9859 ft | 269 kts | 181° |
| 2026-04-14 12:22 | 25.48588 | -99.98227 | 10281 ft | 272 kts | 181° |
| 2026-04-14 12:23 | 25.46657 | -99.98273 | 10713 ft | 282 kts | 181° |
| 2026-04-14 12:23 | 25.44656 | -99.98320 | 11145 ft | 294 kts | 181° |
| 2026-04-14 12:23 | 25.42569 | -99.98370 | 11590 ft | 305 kts | 182° |
| 2026-04-14 12:23 | 25.40403 | -99.98420 | 12039 ft | 316 kts | 182° |
| 2026-04-14 12:24 | 25.38168 | -99.98473 | 12491 ft | 326 kts | 182° |
| 2026-04-14 12:24 | 25.35866 | -99.98527 | 12958 ft | 336 kts | 182° |
| 2026-04-14 12:24 | 25.33498 | -99.98615 | 13417 ft | 345 kts | 184° |
| 2026-04-14 12:24 | 25.31101 | -99.98731 | 13881 ft | 353 kts | 184° |
| 2026-04-14 12:25 | 25.28618 | -99.98857 | 14294 ft | 361 kts | 184° |
| 2026-04-14 12:25 | 25.26081 | -99.98986 | 14723 ft | 368 kts | 184° |
| 2026-04-14 12:25 | 25.23500 | -99.99114 | 15152 ft | 374 kts | 183° |
| 2026-04-14 12:25 | 25.20878 | -99.99242 | 15584 ft | 380 kts | 183° |
| 2026-04-14 12:26 | 25.18223 | -99.99370 | 16017 ft | 384 kts | 183° |
| 2026-04-14 12:26 | 25.15537 | -99.99498 | 16462 ft | 387 kts | 183° |
| 2026-04-14 12:26 | 25.12841 | -99.99627 | 16902 ft | 388 kts | 183° |
| 2026-04-14 12:26 | 25.10136 | -99.99755 | 17370 ft | 389 kts | 183° |
| 2026-04-14 12:27 | 25.07429 | -99.99884 | 17823 ft | 390 kts | 182° |
| 2026-04-14 12:27 | 25.04711 | -100.00014 | 18289 ft | 392 kts | 182° |
| 2026-04-14 12:27 | 25.01986 | -100.00144 | 18702 ft | 393 kts | 182° |
| 2026-04-14 12:27 | 24.99238 | -100.00274 | 19110 ft | 394 kts | 183° |
| 2026-04-14 12:28 | 24.96522 | -100.00404 | 19522 ft | 396 kts | 183° |
| 2026-04-14 12:28 | 24.93762 | -100.00495 | 19936 ft | 398 kts | 179° |
| 2026-04-14 12:28 | 24.90984 | -100.00284 | 20370 ft | 401 kts | 175° |
| 2026-04-14 12:28 | 24.88205 | -99.99907 | 20803 ft | 403 kts | 174° |
| 2026-04-14 12:29 | 24.85418 | -99.99500 | 21232 ft | 405 kts | 174° |
| 2026-04-14 12:29 | 24.82614 | -99.99109 | 21676 ft | 407 kts | 174° |
| 2026-04-14 12:29 | 24.79795 | -99.98743 | 22115 ft | 409 kts | 175° |
| 2026-04-14 12:29 | 24.76961 | -99.98395 | 22576 ft | 410 kts | 175° |
| 2026-04-14 12:30 | 24.74114 | -99.98055 | 22895 ft | 415 kts | 175° |
| 2026-04-14 12:30 | 24.71225 | -99.97712 | 23204 ft | 419 kts | 175° |
| 2026-04-14 12:30 | 24.68329 | -99.97183 | 23526 ft | 426 kts | 166° |
| 2026-04-14 12:30 | 24.65571 | -99.95950 | 23813 ft | 432 kts | 153° |
| 2026-04-14 12:31 | 24.63079 | -99.94062 | 24070 ft | 439 kts | 140° |
| 2026-04-14 12:31 | 24.60882 | -99.91772 | 24355 ft | 441 kts | 137° |
| 2026-04-14 12:31 | 24.58693 | -99.89383 | 24614 ft | 444 kts | 136° |
| 2026-04-14 12:31 | 24.56501 | -99.86967 | 24894 ft | 447 kts | 136° |
| 2026-04-14 12:32 | 24.54292 | -99.84544 | 25163 ft | 450 kts | 136° |
| 2026-04-14 12:32 | 24.52065 | -99.82125 | 25425 ft | 451 kts | 137° |
| 2026-04-14 12:32 | 24.49819 | -99.79706 | 25710 ft | 453 kts | 137° |
| 2026-04-14 12:32 | 24.47557 | -99.77283 | 25990 ft | 455 kts | 137° |
| 2026-04-14 12:33 | 24.45282 | -99.74855 | 26271 ft | 457 kts | 137° |
| 2026-04-14 12:33 | 24.43000 | -99.72425 | 26550 ft | 458 kts | 137° |
| 2026-04-14 12:33 | 24.40705 | -99.69982 | 26846 ft | 460 kts | 137° |
| 2026-04-14 12:33 | 24.38406 | -99.67536 | 27125 ft | 461 kts | 137° |
| 2026-04-14 12:34 | 24.36102 | -99.65085 | 27432 ft | 462 kts | 137° |
| 2026-04-14 12:34 | 24.33789 | -99.62625 | 27722 ft | 463 kts | 137° |
| 2026-04-14 12:34 | 24.32248 | -99.60988 | 27927 ft | 464 kts | 137° |
| 2026-04-14 12:34 | 24.29929 | -99.58523 | 28218 ft | 465 kts | 137° |
| 2026-04-14 12:35 | 24.26852 | -99.55256 | 28626 ft | 465 kts | 137° |
| 2026-04-14 12:35 | 24.24526 | -99.52787 | 28936 ft | 466 kts | 137° |
| 2026-04-14 12:35 | 24.22950 | -99.51115 | 29146 ft | 466 kts | 137° |
| 2026-04-14 12:35 | 24.20643 | -99.48669 | 29457 ft | 466 kts | 137° |
| 2026-04-14 12:36 | 24.18313 | -99.46198 | 29776 ft | 466 kts | 137° |
| 2026-04-14 12:36 | 24.15987 | -99.43734 | 30098 ft | 466 kts | 137° |
| 2026-04-14 12:36 | 24.13647 | -99.41257 | 30379 ft | 466 kts | 138° |
| 2026-04-14 12:36 | 24.11317 | -99.38790 | 30650 ft | 466 kts | 138° |
| 2026-04-14 12:37 | 24.08989 | -99.36327 | 30921 ft | 465 kts | 138° |
| 2026-04-14 12:37 | 24.06660 | -99.33866 | 31207 ft | 465 kts | 138° |
| 2026-04-14 12:37 | 24.04361 | -99.31438 | 31490 ft | 464 kts | 138° |
| 2026-04-14 12:37 | 24.02039 | -99.28987 | 31785 ft | 464 kts | 139° |
| 2026-04-14 12:38 | 23.97401 | -99.24093 | 32355 ft | 462 kts | 139° |
| 2026-04-14 12:38 | 23.95086 | -99.21652 | 32649 ft | 461 kts | 139° |
| 2026-04-14 12:38 | 23.92783 | -99.19224 | 32945 ft | 460 kts | 139° |
| 2026-04-14 12:39 | 23.90479 | -99.16797 | 33252 ft | 459 kts | 139° |
| 2026-04-14 12:39 | 23.88181 | -99.14376 | 33554 ft | 458 kts | 139° |
| 2026-04-14 12:39 | 23.85889 | -99.11963 | 33860 ft | 456 kts | 139° |
| 2026-04-14 12:39 | 23.83604 | -99.09559 | 34155 ft | 455 kts | 140° |
| 2026-04-14 12:40 | 23.81357 | -99.07197 | 34414 ft | 453 kts | 140° |
| 2026-04-14 12:40 | 23.79089 | -99.04812 | 34692 ft | 452 kts | 140° |
| 2026-04-14 12:40 | 23.76825 | -99.02434 | 34967 ft | 450 kts | 140° |
| 2026-04-14 12:41 | 23.72285 | -98.97671 | 35058 ft | 456 kts | 140° |
| 2026-04-14 12:41 | 23.67407 | -98.93209 | 35062 ft | 457 kts | 148° |
| 2026-04-14 12:42 | 23.62188 | -98.89218 | 35055 ft | 460 kts | 149° |
| 2026-04-14 12:42 | 23.56935 | -98.85209 | 35056 ft | 462 kts | 148° |
| 2026-04-14 12:43 | 23.51736 | -98.81175 | 35051 ft | 462 kts | 148° |
| 2026-04-14 12:43 | 23.46514 | -98.77100 | 35055 ft | 460 kts | 148° |
| 2026-04-14 12:44 | 23.41312 | -98.73043 | 35065 ft | 458 kts | 148° |
| 2026-04-14 12:44 | 23.36135 | -98.69014 | 35064 ft | 456 kts | 148° |
| 2026-04-14 12:45 | 23.28404 | -98.63006 | 35068 ft | 454 kts | 148° |
| 2026-04-14 12:45 | 23.23303 | -98.59041 | 35078 ft | 453 kts | 149° |
| 2026-04-14 12:46 | 23.18180 | -98.55059 | 35079 ft | 453 kts | 149° |
| 2026-04-14 12:46 | 23.13048 | -98.51074 | 35083 ft | 453 kts | 149° |
| 2026-04-14 12:47 | 23.07916 | -98.47092 | 35073 ft | 453 kts | 149° |
| 2026-04-14 12:47 | 23.02772 | -98.43105 | 35080 ft | 454 kts | 149° |
| 2026-04-14 12:48 | 22.97644 | -98.39135 | 35080 ft | 456 kts | 149° |
| 2026-04-14 12:48 | 22.92471 | -98.35133 | 35078 ft | 457 kts | 149° |
| 2026-04-14 12:49 | 22.87289 | -98.31128 | 35076 ft | 458 kts | 149° |
| 2026-04-14 12:49 | 22.82092 | -98.27114 | 35072 ft | 459 kts | 149° |
| 2026-04-14 12:50 | 22.74279 | -98.21088 | 35074 ft | 460 kts | 149° |
| 2026-04-14 12:51 | 22.69052 | -98.17060 | 35068 ft | 460 kts | 149° |
| 2026-04-14 12:51 | 22.63831 | -98.13041 | 35067 ft | 460 kts | 149° |
| 2026-04-14 12:52 | 22.58614 | -98.09029 | 35066 ft | 460 kts | 149° |
| 2026-04-14 12:52 | 22.53397 | -98.05018 | 35063 ft | 459 kts | 149° |
| 2026-04-14 12:53 | 22.48185 | -98.01013 | 35062 ft | 459 kts | 149° |
| 2026-04-14 12:53 | 22.43009 | -97.97039 | 35055 ft | 459 kts | 149° |
| 2026-04-14 12:54 | 22.37808 | -97.93049 | 35054 ft | 458 kts | 149° |
| 2026-04-14 12:54 | 22.32609 | -97.89065 | 35055 ft | 458 kts | 149° |
| 2026-04-14 12:55 | 22.27328 | -97.85262 | 35048 ft | 452 kts | 157° |
| 2026-04-14 12:55 | 22.21738 | -97.82258 | 35050 ft | 450 kts | 159° |
| 2026-04-14 12:56 | 22.16094 | -97.79309 | 35057 ft | 450 kts | 159° |
| 2026-04-14 12:56 | 22.10471 | -97.76309 | 35057 ft | 451 kts | 158° |
| 2026-04-14 12:57 | 22.04861 | -97.73286 | 35058 ft | 451 kts | 158° |
| 2026-04-14 12:57 | 21.99244 | -97.70258 | 35061 ft | 451 kts | 158° |
| 2026-04-14 12:58 | 21.93623 | -97.67235 | 35063 ft | 451 kts | 159° |
| 2026-04-14 12:58 | 21.88036 | -97.64232 | 35063 ft | 452 kts | 158° |
| 2026-04-14 12:59 | 21.82403 | -97.61204 | 35063 ft | 452 kts | 158° |
| 2026-04-14 12:59 | 21.76769 | -97.58176 | 35056 ft | 452 kts | 158° |
| 2026-04-14 13:00 | 21.71131 | -97.55149 | 35065 ft | 453 kts | 158° |
| 2026-04-14 13:00 | 21.65492 | -97.52124 | 35054 ft | 453 kts | 158° |
| 2026-04-14 13:01 | 21.59849 | -97.49099 | 35060 ft | 453 kts | 158° |
| 2026-04-14 13:01 | 21.54242 | -97.46096 | 35061 ft | 453 kts | 158° |
| 2026-04-14 13:02 | 21.48598 | -97.43076 | 35061 ft | 452 kts | 159° |
| 2026-04-14 13:02 | 21.42951 | -97.40057 | 35062 ft | 452 kts | 158° |
| 2026-04-14 13:03 | 21.37322 | -97.37050 | 35060 ft | 452 kts | 158° |
| 2026-04-14 13:03 | 21.31716 | -97.34058 | 35059 ft | 452 kts | 159° |
| 2026-04-14 13:04 | 21.26082 | -97.31054 | 35062 ft | 452 kts | 159° |
| 2026-04-14 13:04 | 21.20443 | -97.28050 | 35060 ft | 452 kts | 159° |
| 2026-04-14 13:05 | 21.14810 | -97.25051 | 35061 ft | 452 kts | 159° |
| 2026-04-14 13:05 | 21.09179 | -97.22056 | 35059 ft | 452 kts | 158° |
| 2026-04-14 13:06 | 21.03539 | -97.19059 | 35063 ft | 452 kts | 158° |
| 2026-04-14 13:06 | 20.97906 | -97.16068 | 35056 ft | 452 kts | 158° |
| 2026-04-14 13:07 | 20.92305 | -97.13097 | 35059 ft | 452 kts | 158° |
| 2026-04-14 13:07 | 20.86670 | -97.10110 | 35057 ft | 452 kts | 158° |
| 2026-04-14 13:08 | 20.81033 | -97.07125 | 35053 ft | 452 kts | 158° |
| 2026-04-14 13:08 | 20.75396 | -97.04142 | 35053 ft | 452 kts | 158° |
| 2026-04-14 13:09 | 20.69757 | -97.01160 | 35055 ft | 452 kts | 158° |
| 2026-04-14 13:09 | 20.64114 | -96.98179 | 35052 ft | 452 kts | 158° |
| 2026-04-14 13:10 | 20.58504 | -96.95217 | 35051 ft | 452 kts | 158° |
| 2026-04-14 13:10 | 20.52867 | -96.92244 | 35049 ft | 452 kts | 158° |
| 2026-04-14 13:11 | 20.47222 | -96.89268 | 35048 ft | 452 kts | 158° |
| 2026-04-14 13:11 | 20.41578 | -96.86295 | 35043 ft | 452 kts | 158° |
| 2026-04-14 13:12 | 20.35930 | -96.83331 | 35044 ft | 452 kts | 158° |
| 2026-04-14 13:12 | 20.30270 | -96.80378 | 35051 ft | 452 kts | 158° |
| 2026-04-14 13:13 | 20.24651 | -96.77446 | 35038 ft | 452 kts | 158° |
| 2026-04-14 13:13 | 20.19001 | -96.74498 | 35042 ft | 452 kts | 158° |
| 2026-04-14 13:14 | 20.13367 | -96.71498 | 35048 ft | 453 kts | 158° |
| 2026-04-14 13:14 | 20.07746 | -96.68475 | 35061 ft | 453 kts | 158° |
| 2026-04-14 13:15 | 20.02117 | -96.65457 | 35056 ft | 453 kts | 158° |
| 2026-04-14 13:15 | 19.96475 | -96.62441 | 35054 ft | 453 kts | 158° |
| 2026-04-14 13:16 | 19.90873 | -96.59449 | 35058 ft | 453 kts | 158° |
| 2026-04-14 13:16 | 19.85226 | -96.56440 | 35064 ft | 454 kts | 158° |
| 2026-04-14 13:17 | 19.79594 | -96.53448 | 35066 ft | 454 kts | 158° |
| 2026-04-14 13:17 | 19.73939 | -96.50446 | 35057 ft | 454 kts | 158° |
| 2026-04-14 13:18 | 19.68272 | -96.47439 | 35057 ft | 455 kts | 158° |
| 2026-04-14 13:18 | 19.62589 | -96.44424 | 35053 ft | 456 kts | 157° |
| 2026-04-14 13:19 | 19.56942 | -96.41431 | 35057 ft | 457 kts | 157° |
| 2026-04-14 13:19 | 19.51242 | -96.38413 | 35045 ft | 458 kts | 157° |
| 2026-04-14 13:20 | 19.45540 | -96.35396 | 35046 ft | 458 kts | 157° |
| 2026-04-14 13:20 | 19.39830 | -96.32377 | 35052 ft | 459 kts | 157° |
| 2026-04-14 13:21 | 19.34108 | -96.29353 | 35065 ft | 459 kts | 157° |
| 2026-04-14 13:21 | 19.28394 | -96.26335 | 35075 ft | 459 kts | 157° |
| 2026-04-14 13:22 | 19.22777 | -96.23370 | 35083 ft | 459 kts | 157° |
| 2026-04-14 13:22 | 19.17099 | -96.20263 | 35080 ft | 462 kts | 150° |
| 2026-04-14 13:23 | 19.12262 | -96.15792 | 35088 ft | 470 kts | 133° |
| 2026-04-14 13:23 | 19.08503 | -96.10085 | 35081 ft | 474 kts | 126° |
| 2026-04-14 13:24 | 19.04886 | -96.04255 | 35073 ft | 474 kts | 127° |
| 2026-04-14 13:24 | 18.99987 | -95.96545 | 35064 ft | 475 kts | 127° |
| 2026-04-14 13:25 | 18.96267 | -95.90756 | 35059 ft | 476 kts | 127° |
| 2026-04-14 13:26 | 18.88822 | -95.79172 | 35051 ft | 477 kts | 127° |
| 2026-04-14 13:26 | 18.85088 | -95.73364 | 35051 ft | 478 kts | 127° |
| 2026-04-14 13:27 | 18.81354 | -95.67558 | 35051 ft | 478 kts | 128° |
| 2026-04-14 13:27 | 18.77618 | -95.61754 | 35052 ft | 478 kts | 128° |
| 2026-04-14 13:28 | 18.73873 | -95.55942 | 35051 ft | 478 kts | 128° |
| 2026-04-14 13:28 | 18.70132 | -95.50142 | 35054 ft | 478 kts | 128° |
| 2026-04-14 13:29 | 18.66390 | -95.44345 | 35049 ft | 478 kts | 128° |
| 2026-04-14 13:29 | 18.62657 | -95.38566 | 35057 ft | 478 kts | 128° |
| 2026-04-14 13:30 | 18.58907 | -95.32766 | 35060 ft | 478 kts | 128° |
| 2026-04-14 13:30 | 18.55181 | -95.27011 | 35058 ft | 478 kts | 128° |
| 2026-04-14 13:31 | 18.51422 | -95.21220 | 35066 ft | 478 kts | 128° |
| 2026-04-14 13:31 | 18.47664 | -95.15440 | 35066 ft | 478 kts | 128° |
| 2026-04-14 13:32 | 18.43905 | -95.09661 | 35063 ft | 478 kts | 128° |
| 2026-04-14 13:32 | 18.40143 | -95.03881 | 35064 ft | 478 kts | 128° |
| 2026-04-14 13:33 | 18.36384 | -94.98109 | 35071 ft | 478 kts | 128° |
| 2026-04-14 13:33 | 18.32623 | -94.92340 | 35071 ft | 478 kts | 128° |
| 2026-04-14 13:34 | 18.26978 | -94.83692 | 35059 ft | 478 kts | 128° |
| 2026-04-14 13:35 | 18.23214 | -94.77929 | 35056 ft | 478 kts | 128° |
| 2026-04-14 13:35 | 18.19447 | -94.72170 | 35056 ft | 478 kts | 128° |
| 2026-04-14 13:36 | 18.15673 | -94.66403 | 35055 ft | 478 kts | 128° |
| 2026-04-14 13:36 | 18.11932 | -94.60692 | 35057 ft | 477 kts | 128° |
| 2026-04-14 13:37 | 18.07734 | -94.55368 | 35062 ft | 470 kts | 140° |
| 2026-04-14 13:37 | 18.03022 | -94.50602 | 35051 ft | 469 kts | 141° |
| 2026-04-14 13:38 | 17.98290 | -94.45863 | 35050 ft | 469 kts | 140° |
| 2026-04-14 13:38 | 17.93590 | -94.41097 | 35047 ft | 470 kts | 140° |
| 2026-04-14 13:39 | 17.88902 | -94.36308 | 35047 ft | 470 kts | 140° |
| 2026-04-14 13:39 | 17.84242 | -94.31543 | 35044 ft | 470 kts | 140° |
| 2026-04-14 13:40 | 17.79556 | -94.26756 | 35048 ft | 470 kts | 140° |
| 2026-04-14 13:40 | 17.74870 | -94.21976 | 35040 ft | 470 kts | 140° |
| 2026-04-14 13:41 | 17.70178 | -94.17193 | 35052 ft | 470 kts | 140° |
| 2026-04-14 13:41 | 17.65484 | -94.12412 | 35055 ft | 470 kts | 140° |
| 2026-04-14 13:42 | 17.60781 | -94.07626 | 35039 ft | 470 kts | 140° |
| 2026-04-14 13:42 | 17.56109 | -94.02875 | 35041 ft | 470 kts | 140° |
| 2026-04-14 13:43 | 17.51409 | -93.98099 | 35048 ft | 470 kts | 140° |
| 2026-04-14 13:43 | 17.46711 | -93.93328 | 35055 ft | 470 kts | 140° |
| 2026-04-14 13:44 | 17.42006 | -93.88555 | 35052 ft | 471 kts | 140° |
| 2026-04-14 13:44 | 17.37324 | -93.83808 | 35060 ft | 471 kts | 140° |
| 2026-04-14 13:45 | 17.32613 | -93.79034 | 35059 ft | 471 kts | 140° |
| 2026-04-14 13:45 | 17.27910 | -93.74273 | 35063 ft | 471 kts | 140° |
| 2026-04-14 13:46 | 17.23197 | -93.69506 | 35059 ft | 471 kts | 140° |
| 2026-04-14 13:46 | 17.18482 | -93.64739 | 35066 ft | 470 kts | 140° |
| 2026-04-14 13:47 | 17.13769 | -93.59978 | 35065 ft | 470 kts | 140° |
| 2026-04-14 13:47 | 17.09100 | -93.55266 | 35073 ft | 470 kts | 140° |
| 2026-04-14 13:48 | 17.04395 | -93.50520 | 35067 ft | 470 kts | 139° |
| 2026-04-14 13:48 | 16.99679 | -93.45766 | 35072 ft | 470 kts | 139° |
| 2026-04-14 13:49 | 16.94972 | -93.41025 | 35077 ft | 470 kts | 139° |
| 2026-04-14 13:49 | 16.90267 | -93.36288 | 35071 ft | 470 kts | 139° |
| 2026-04-14 13:50 | 16.85585 | -93.31579 | 35072 ft | 469 kts | 139° |
| 2026-04-14 13:50 | 16.80881 | -93.26854 | 35076 ft | 469 kts | 139° |
| 2026-04-14 13:51 | 16.76179 | -93.22133 | 35081 ft | 469 kts | 139° |
| 2026-04-14 13:51 | 16.71476 | -93.17413 | 35093 ft | 469 kts | 139° |
| 2026-04-14 13:52 | 16.66769 | -93.12691 | 35099 ft | 470 kts | 139° |
| 2026-04-14 13:52 | 16.62053 | -93.07963 | 35098 ft | 470 kts | 139° |
| 2026-04-14 13:53 | 16.57336 | -93.03230 | 35101 ft | 471 kts | 138° |
| 2026-04-14 13:53 | 16.53046 | -92.98089 | 35107 ft | 474 kts | 131° |
| 2026-04-14 13:54 | 16.48930 | -92.92714 | 35097 ft | 475 kts | 131° |
| 2026-04-14 13:54 | 16.44778 | -92.87362 | 35084 ft | 475 kts | 132° |
| 2026-04-14 13:55 | 16.40582 | -92.82035 | 35076 ft | 475 kts | 132° |
| 2026-04-14 13:55 | 16.36378 | -92.76716 | 35058 ft | 476 kts | 132° |
| 2026-04-14 13:56 | 16.32174 | -92.71394 | 35051 ft | 476 kts | 132° |
| 2026-04-14 13:56 | 16.27972 | -92.66082 | 35055 ft | 476 kts | 132° |
| 2026-04-14 13:57 | 16.23756 | -92.60763 | 35055 ft | 476 kts | 132° |
| 2026-04-14 13:57 | 16.19570 | -92.55484 | 35058 ft | 476 kts | 132° |
| 2026-04-14 13:58 | 16.15356 | -92.50172 | 35066 ft | 476 kts | 132° |
| 2026-04-14 13:58 | 16.11140 | -92.44859 | 35072 ft | 476 kts | 132° |
| 2026-04-14 13:59 | 16.06914 | -92.39539 | 35074 ft | 476 kts | 132° |
| 2026-04-14 13:59 | 16.02692 | -92.34228 | 35086 ft | 476 kts | 132° |
| 2026-04-14 14:00 | 15.98467 | -92.28916 | 35091 ft | 476 kts | 132° |
| 2026-04-14 14:00 | 15.94275 | -92.23650 | 35099 ft | 476 kts | 132° |
| 2026-04-14 14:01 | 15.90035 | -92.18329 | 34646 ft | 483 kts | 132° |
| 2026-04-14 14:01 | 15.87892 | -92.15641 | 34254 ft | 481 kts | 132° |
| 2026-04-14 14:01 | 15.85767 | -92.12974 | 33803 ft | 477 kts | 132° |
| 2026-04-14 14:01 | 15.83658 | -92.10328 | 33349 ft | 474 kts | 132° |
| 2026-04-14 14:02 | 15.81551 | -92.07687 | 32912 ft | 475 kts | 132° |
| 2026-04-14 14:02 | 15.79441 | -92.05045 | 32480 ft | 475 kts | 132° |
| 2026-04-14 14:02 | 15.77330 | -92.02401 | 32049 ft | 475 kts | 132° |
| 2026-04-14 14:02 | 15.75223 | -91.99762 | 31630 ft | 475 kts | 132° |
| 2026-04-14 14:03 | 15.73114 | -91.97122 | 31217 ft | 474 kts | 131° |
| 2026-04-14 14:03 | 15.71012 | -91.94485 | 30808 ft | 474 kts | 130° |
| 2026-04-14 14:03 | 15.69031 | -91.91751 | 30403 ft | 475 kts | 127° |
| 2026-04-14 14:03 | 15.67159 | -91.88911 | 29977 ft | 476 kts | 125° |
| 2026-04-14 14:04 | 15.65361 | -91.86077 | 29505 ft | 476 kts | 125° |
| 2026-04-14 14:04 | 15.63544 | -91.83198 | 29045 ft | 477 kts | 125° |
| 2026-04-14 14:04 | 15.61712 | -91.80320 | 28582 ft | 478 kts | 125° |
| 2026-04-14 14:04 | 15.59858 | -91.77443 | 28147 ft | 479 kts | 125° |
| 2026-04-14 14:05 | 15.57989 | -91.74571 | 27704 ft | 480 kts | 125° |
| 2026-04-14 14:05 | 15.56109 | -91.71699 | 27287 ft | 482 kts | 125° |
| 2026-04-14 14:05 | 15.54218 | -91.68819 | 26862 ft | 483 kts | 125° |
| 2026-04-14 14:05 | 15.52323 | -91.65934 | 26435 ft | 485 kts | 125° |
| 2026-04-14 14:06 | 15.50424 | -91.63045 | 26026 ft | 485 kts | 125° |
| 2026-04-14 14:06 | 15.48523 | -91.60152 | 25637 ft | 486 kts | 125° |
| 2026-04-14 14:06 | 15.46621 | -91.57257 | 25225 ft | 486 kts | 124° |
| 2026-04-14 14:06 | 15.44719 | -91.54362 | 24819 ft | 484 kts | 124° |
| 2026-04-14 14:07 | 15.42831 | -91.51490 | 24432 ft | 479 kts | 124° |
| 2026-04-14 14:07 | 15.40992 | -91.48692 | 24041 ft | 473 kts | 124° |
| 2026-04-14 14:07 | 15.39148 | -91.45888 | 23632 ft | 468 kts | 124° |
| 2026-04-14 14:07 | 15.37316 | -91.43105 | 23170 ft | 466 kts | 124° |
| 2026-04-14 14:08 | 15.35498 | -91.40342 | 22727 ft | 463 kts | 124° |
| 2026-04-14 14:08 | 15.33689 | -91.37593 | 22277 ft | 460 kts | 123° |
| 2026-04-14 14:08 | 15.31888 | -91.34859 | 21839 ft | 457 kts | 123° |
| 2026-04-14 14:08 | 15.30104 | -91.32153 | 21401 ft | 453 kts | 123° |
| 2026-04-14 14:09 | 15.28330 | -91.29463 | 20977 ft | 450 kts | 123° |
| 2026-04-14 14:09 | 15.26574 | -91.26801 | 20557 ft | 446 kts | 123° |
| 2026-04-14 14:09 | 15.24835 | -91.24166 | 20145 ft | 442 kts | 123° |
| 2026-04-14 14:09 | 15.23106 | -91.21546 | 19733 ft | 439 kts | 123° |
| 2026-04-14 14:10 | 15.21388 | -91.18944 | 19324 ft | 435 kts | 123° |
| 2026-04-14 14:10 | 15.19687 | -91.16366 | 18927 ft | 432 kts | 123° |
| 2026-04-14 14:10 | 15.17991 | -91.13797 | 18523 ft | 428 kts | 123° |
| 2026-04-14 14:10 | 15.16338 | -91.11294 | 18078 ft | 423 kts | 123° |
| 2026-04-14 14:11 | 15.14701 | -91.08818 | 17609 ft | 410 kts | 123° |
| 2026-04-14 14:11 | 15.13091 | -91.06447 | 17143 ft | 395 kts | 127° |
| 2026-04-14 14:11 | 15.11115 | -91.04554 | 16694 ft | 382 kts | 142° |
| 2026-04-14 14:11 | 15.08995 | -91.02969 | 16267 ft | 369 kts | 143° |
| 2026-04-14 14:12 | 15.06933 | -91.01452 | 15833 ft | 359 kts | 143° |
| 2026-04-14 14:12 | 15.04927 | -90.99974 | 15406 ft | 349 kts | 143° |
| 2026-04-14 14:12 | 15.03632 | -90.99014 | 15127 ft | 343 kts | 143° |
| 2026-04-14 14:12 | 15.01720 | -90.97588 | 14712 ft | 335 kts | 143° |
| 2026-04-14 14:13 | 14.99854 | -90.96190 | 14373 ft | 326 kts | 143° |
| 2026-04-14 14:13 | 14.98046 | -90.94831 | 14105 ft | 315 kts | 143° |
| 2026-04-14 14:13 | 14.96299 | -90.93515 | 13794 ft | 306 kts | 143° |
| 2026-04-14 14:13 | 14.94604 | -90.92237 | 13481 ft | 297 kts | 143° |
| 2026-04-14 14:14 | 14.92954 | -90.90993 | 13161 ft | 289 kts | 143° |
| 2026-04-14 14:14 | 14.91353 | -90.89785 | 12861 ft | 281 kts | 143° |
| 2026-04-14 14:14 | 14.89808 | -90.88619 | 12551 ft | 275 kts | 143° |
| 2026-04-14 14:14 | 14.88278 | -90.87465 | 12257 ft | 269 kts | 143° |
| 2026-04-14 14:15 | 14.86701 | -90.86466 | 11956 ft | 263 kts | 152° |
| 2026-04-14 14:15 | 14.85078 | -90.85616 | 11677 ft | 260 kts | 153° |
| 2026-04-14 14:15 | 14.83465 | -90.84791 | 11390 ft | 258 kts | 153° |
| 2026-04-14 14:15 | 14.81859 | -90.83975 | 11115 ft | 256 kts | 153° |
| 2026-04-14 14:16 | 14.80278 | -90.83174 | 10875 ft | 249 kts | 153° |
| 2026-04-14 14:16 | 14.78738 | -90.82394 | 10561 ft | 244 kts | 153° |
| 2026-04-14 14:16 | 14.77225 | -90.81630 | 10301 ft | 239 kts | 153° |
| 2026-04-14 14:17 | 14.74345 | -90.80171 | 10016 ft | 219 kts | 153° |
| 2026-04-14 14:17 | 14.72989 | -90.79486 | 10006 ft | 215 kts | 153° |
| 2026-04-14 14:17 | 14.71589 | -90.78952 | 9926 ft | 217 kts | 173° |
| 2026-04-14 14:17 | 14.70078 | -90.78831 | 9917 ft | 218 kts | 175° |
| 2026-04-14 14:18 | 14.68561 | -90.78711 | 9846 ft | 218 kts | 175° |
| 2026-04-14 14:18 | 14.67071 | -90.78590 | 9796 ft | 218 kts | 175° |
| 2026-04-14 14:18 | 14.65529 | -90.78466 | 9619 ft | 224 kts | 175° |
| 2026-04-14 14:18 | 14.63978 | -90.78342 | 9434 ft | 223 kts | 175° |
| 2026-04-14 14:19 | 14.62431 | -90.78224 | 9224 ft | 221 kts | 175° |
| 2026-04-14 14:19 | 14.60922 | -90.77980 | 9027 ft | 219 kts | 158° |
| 2026-04-14 14:19 | 14.59664 | -90.77130 | 8858 ft | 216 kts | 131° |
| 2026-04-14 14:19 | 14.58632 | -90.76015 | 8664 ft | 214 kts | 134° |
| 2026-04-14 14:20 | 14.57572 | -90.74950 | 8473 ft | 211 kts | 134° |
| 2026-04-14 14:20 | 14.56516 | -90.73904 | 8284 ft | 210 kts | 134° |
| 2026-04-14 14:20 | 14.55477 | -90.72846 | 8099 ft | 209 kts | 126° |
| 2026-04-14 14:20 | 14.54837 | -90.71557 | 8068 ft | 195 kts | 107° |
| 2026-04-14 14:21 | 14.54331 | -90.70195 | 8053 ft | 209 kts | 108° |
| 2026-04-14 14:21 | 14.53817 | -90.68818 | 8374 ft | 206 kts | 106° |
| 2026-04-14 14:21 | 14.53667 | -90.67359 | 8651 ft | 204 kts | 79° |
| 2026-04-14 14:21 | 14.53620 | -90.65916 | 8911 ft | 205 kts | 107° |
| 2026-04-14 14:22 | 14.52796 | -90.64733 | 8984 ft | 211 kts | 143° |
| 2026-04-14 14:22 | 14.51555 | -90.63903 | 8983 ft | 217 kts | 140° |
| 2026-04-14 14:22 | 14.50351 | -90.62895 | 8609 ft | 229 kts | 139° |
| 2026-04-14 14:22 | 14.49104 | -90.61856 | 8227 ft | 230 kts | 139° |
| 2026-04-14 14:23 | 14.47851 | -90.60819 | 7815 ft | 231 kts | 139° |
| 2026-04-14 14:23 | 14.46593 | -90.59780 | 7411 ft | 232 kts | 139° |
| 2026-04-14 14:23 | 14.45374 | -90.58699 | 7041 ft | 230 kts | 125° |
| 2026-04-14 14:23 | 14.44877 | -90.57194 | 6595 ft | 222 kts | 80° |
| 2026-04-14 14:24 | 14.45521 | -90.55878 | 6434 ft | 201 kts | 36° |
| 2026-04-14 14:24 | 14.46777 | -90.55509 | 6317 ft | 188 kts | 351° |
| 2026-04-14 14:24 | 14.47932 | -90.55988 | 6312 ft | 177 kts | 342° |
| 2026-04-14 14:24 | 14.49092 | -90.55877 | 6383 ft | 170 kts | 27° |
| 2026-04-14 14:25 | 14.50223 | -90.55358 | 6319 ft | 174 kts | 14° |
| 2026-04-14 14:25 | 14.51381 | -90.55008 | 6145 ft | 176 kts | 18° |
| 2026-04-14 14:25 | 14.52540 | -90.54618 | 5889 ft | 173 kts | 17° |
| 2026-04-14 14:25 | 14.53658 | -90.54256 | 5642 ft | 166 kts | 18° |
| 2026-04-14 14:26 | 14.54745 | -90.53904 | 5402 ft | 155 kts | 17° |
| 2026-04-14 14:26 | 14.55738 | -90.53583 | 5196 ft | 148 kts | 17° |
| 2026-04-14 14:26 | 14.56663 | -90.53290 | 5018 ft | 128 kts | 17° |
| 2026-04-14 14:26 | 14.57448 | -90.53024 | 4900 ft | 110 kts | 19° |
| 2026-04-14 14:27 | 14.58148 | -90.52797 | 4920 ft | 89 kts | 13° |
| 2026-04-14 14:27 | 14.58430 | -90.52711 | 4925 ft | 4 kts | 16° |
| 2026-04-14 14:27 | 14.58470 | -90.52700 | 4925 ft | 6 kts | 14° |
| 2026-04-14 14:27 | 14.58512 | -90.52689 | 4927 ft | 6 kts | 15° |
| 2026-04-14 14:28 | 14.58552 | -90.52678 | 4926 ft | 6 kts | 14° |
| 2026-04-14 14:28 | 14.58592 | -90.52669 | 4927 ft | 6 kts | 12° |
| 2026-04-14 14:28 | 14.58632 | -90.52664 | 4930 ft | 6 kts | 356° |
| 2026-04-14 14:28 | 14.58664 | -90.52685 | 4929 ft | 6 kts | 305° |
| 2026-04-14 14:29 | 14.58678 | -90.52714 | 4929 ft | 0 kts | 292° |
| 2026-04-14 14:31 | 14.58678 | -90.52715 | 4929 ft | 1 kts | 292° |
| 2026-04-14 14:31 | 14.58691 | -90.52744 | 4928 ft | 7 kts | 300° |
| 2026-04-14 14:31 | 14.58731 | -90.52786 | 4930 ft | 9 kts | 318° |
| 2026-04-14 14:31 | 14.58788 | -90.52812 | 4931 ft | 9 kts | 4° |
| 2026-04-14 14:32 | 14.58851 | -90.52797 | 4933 ft | 9 kts | 18° |
| 2026-04-14 14:32 | 14.58911 | -90.52778 | 4934 ft | 9 kts | 17° |
| 2026-04-14 14:32 | 14.58969 | -90.52759 | 4936 ft | 9 kts | 17° |
| 2026-04-14 14:32 | 14.59025 | -90.52770 | 4937 ft | 8 kts | 337° |
| 2026-04-14 14:33 | 14.59079 | -90.52787 | 4938 ft | 8 kts | 319° |
| 2026-04-14 14:33 | 14.59093 | -90.52815 | 4938 ft | 0 kts | 295° |
| 2026-04-14 14:33 | 14.59046 | -90.52841 | 4937 ft | 0 kts | 283° |